sensor_id;sensor_type;location;lat;lon;timestamp;pressure;altitude;pressure_sealevel;temperature;humidity
36598;BME280;22607;49.550;11.940;2022-10-31T00:01:20;97363.00;;;9.73;100.00
36598;BME280;22607;49.550;11.940;2022-10-31T00:03:47;97359.31;;;9.84;100.00
36598;BME280;22607;49.550;11.940;2022-10-31T00:06:14;97359.16;;;9.85;100.00
36598;BME280;22607;49.550;11.940;2022-10-31T00:08:41;97353.13;;;9.93;100.00
36598;BME280;22607;49.550;11.940;2022-10-31T00:11:10;97357.69;;;9.65;100.00
36598;BME280;22607;49.550;11.940;2022-10-31T00:13:36;97364.00;;;9.54;100.00
36598;BME280;22607;49.550;11.940;2022-10-31T00:16:03;97360.66;;;9.88;100.00
36598;BME280;22607;49.550;11.940;2022-10-31T00:18:30;97363.69;;;10.02;100.00
36598;BME280;22607;49.550;11.940;2022-10-31T00:21:00;97354.50;;;10.06;100.00
36598;BME280;22607;49.550;11.940;2022-10-31T00:23:26;97358.47;;;9.83;100.00
36598;BME280;22607;49.550;11.940;2022-10-31T00:25:52;97358.19;;;9.87;100.00
36598;BME280;22607;49.550;11.940;2022-10-31T00:28:19;97358.06;;;9.96;100.00
36598;BME280;22607;49.550;11.940;2022-10-31T00:30:45;97351.47;;;9.66;100.00
36598;BME280;22607;49.550;11.940;2022-10-31T00:33:12;97358.38;;;9.67;100.00
36598;BME280;22607;49.550;11.940;2022-10-31T00:35:49;97366.69;;;9.62;100.00
36598;BME280;22607;49.550;11.940;2022-10-31T00:38:15;97363.97;;;9.45;100.00
36598;BME280;22607;49.550;11.940;2022-10-31T00:40:41;97367.88;;;9.41;100.00
36598;BME280;22607;49.550;11.940;2022-10-31T00:43:08;97366.41;;;9.65;100.00
36598;BME280;22607;49.550;11.940;2022-10-31T00:45:34;97363.06;;;9.55;100.00
36598;BME280;22607;49.550;11.940;2022-10-31T00:48:01;97362.66;;;9.50;100.00
36598;BME280;22607;49.550;11.940;2022-10-31T00:50:28;97363.97;;;9.27;100.00
36598;BME280;22607;49.550;11.940;2022-10-31T00:52:54;97359.84;;;9.25;100.00
36598;BME280;22607;49.550;11.940;2022-10-31T00:55:20;97360.97;;;9.22;100.00
36598;BME280;22607;49.550;11.940;2022-10-31T00:57:47;97359.34;;;9.21;100.00
36598;BME280;22607;49.550;11.940;2022-10-31T01:00:14;97363.66;;;9.12;100.00
36598;BME280;22607;49.550;11.940;2022-10-31T01:02:40;97362.00;;;9.48;100.00
36598;BME280;22607;49.550;11.940;2022-10-31T01:05:07;97359.19;;;9.23;100.00
36598;BME280;22607;49.550;11.940;2022-10-31T01:07:37;97368.59;;;9.33;100.00
36598;BME280;22607;49.550;11.940;2022-10-31T01:10:04;97359.72;;;9.26;100.00
36598;BME280;22607;49.550;11.940;2022-10-31T01:12:35;97362.72;;;9.13;100.00
36598;BME280;22607;49.550;11.940;2022-10-31T01:15:02;97355.34;;;9.35;100.00
36598;BME280;22607;49.550;11.940;2022-10-31T01:17:28;97360.38;;;9.28;100.00
36598;BME280;22607;49.550;11.940;2022-10-31T01:19:55;97366.06;;;9.42;100.00
36598;BME280;22607;49.550;11.940;2022-10-31T01:22:21;97359.25;;;9.49;100.00
36598;BME280;22607;49.550;11.940;2022-10-31T01:24:47;97364.13;;;9.26;100.00
36598;BME280;22607;49.550;11.940;2022-10-31T01:27:14;97359.38;;;9.48;100.00
36598;BME280;22607;49.550;11.940;2022-10-31T01:29:40;97369.50;;;9.24;100.00
36598;BME280;22607;49.550;11.940;2022-10-31T01:32:07;97358.94;;;8.98;100.00
36598;BME280;22607;49.550;11.940;2022-10-31T01:34:33;97361.47;;;8.89;100.00
36598;BME280;22607;49.550;11.940;2022-10-31T01:37:00;97370.78;;;9.02;100.00
36598;BME280;22607;49.550;11.940;2022-10-31T01:39:26;97356.88;;;9.19;100.00
36598;BME280;22607;49.550;11.940;2022-10-31T01:41:53;97357.78;;;9.10;100.00
36598;BME280;22607;49.550;11.940;2022-10-31T01:49:36;97357.97;;;9.35;100.00
36598;BME280;22607;49.550;11.940;2022-10-31T01:54:34;97359.69;;;9.08;100.00
36598;BME280;22607;49.550;11.940;2022-10-31T01:57:03;97359.19;;;9.04;100.00
36598;BME280;22607;49.550;11.940;2022-10-31T01:59:32;97366.72;;;8.89;100.00
36598;BME280;22607;49.550;11.940;2022-10-31T02:01:59;97356.03;;;9.01;100.00
36598;BME280;22607;49.550;11.940;2022-10-31T02:04:25;97363.00;;;9.10;100.00
36598;BME280;22607;49.550;11.940;2022-10-31T02:07:03;97360.91;;;9.14;100.00
36598;BME280;22607;49.550;11.940;2022-10-31T02:09:31;97368.81;;;8.86;100.00
36598;BME280;22607;49.550;11.940;2022-10-31T02:11:58;97361.19;;;8.92;100.00
36598;BME280;22607;49.550;11.940;2022-10-31T02:14:26;97361.34;;;8.73;100.00
36598;BME280;22607;49.550;11.940;2022-10-31T02:16:53;97361.47;;;8.89;100.00
36598;BME280;22607;49.550;11.940;2022-10-31T02:22:02;97367.41;;;8.73;100.00
36598;BME280;22607;49.550;11.940;2022-10-31T02:24:57;97367.78;;;8.78;100.00
36598;BME280;22607;49.550;11.940;2022-10-31T02:35:20;97360.84;;;8.59;100.00
36598;BME280;22607;49.550;11.940;2022-10-31T02:38:06;97363.25;;;8.71;100.00
36598;BME280;22607;49.550;11.940;2022-10-31T02:40:39;97361.34;;;8.73;100.00
36598;BME280;22607;49.550;11.940;2022-10-31T02:43:45;97359.31;;;8.85;100.00
36598;BME280;22607;49.550;11.940;2022-10-31T02:48:30;97364.72;;;8.83;100.00
36598;BME280;22607;49.550;11.940;2022-10-31T02:50:59;97362.78;;;8.85;100.00
36598;BME280;22607;49.550;11.940;2022-10-31T02:53:26;97366.97;;;8.96;100.00
36598;BME280;22607;49.550;11.940;2022-10-31T02:56:01;97365.69;;;8.82;100.00
36598;BME280;22607;49.550;11.940;2022-10-31T02:58:31;97363.94;;;8.73;100.00
36598;BME280;22607;49.550;11.940;2022-10-31T03:06:17;97371.06;;;8.80;100.00
36598;BME280;22607;49.550;11.940;2022-10-31T03:08:57;97366.34;;;8.84;100.00
36598;BME280;22607;49.550;11.940;2022-10-31T03:11:42;97366.63;;;8.63;100.00
36598;BME280;22607;49.550;11.940;2022-10-31T03:14:12;97371.56;;;8.66;100.00
36598;BME280;22607;49.550;11.940;2022-10-31T03:19:09;97366.66;;;8.81;100.00
36598;BME280;22607;49.550;11.940;2022-10-31T03:21:41;97369.94;;;8.83;100.00
36598;BME280;22607;49.550;11.940;2022-10-31T03:24:10;97368.72;;;8.77;100.00
36598;BME280;22607;49.550;11.940;2022-10-31T03:26:38;97377.69;;;8.47;100.00
36598;BME280;22607;49.550;11.940;2022-10-31T03:29:05;97369.34;;;8.33;100.00
36598;BME280;22607;49.550;11.940;2022-10-31T03:31:33;97370.69;;;8.47;100.00
36598;BME280;22607;49.550;11.940;2022-10-31T03:34:03;97375.38;;;8.44;100.00
36598;BME280;22607;49.550;11.940;2022-10-31T03:36:33;97373.66;;;8.24;100.00
36598;BME280;22607;49.550;11.940;2022-10-31T03:39:01;97372.53;;;8.27;100.00
36598;BME280;22607;49.550;11.940;2022-10-31T03:41:28;97376.19;;;8.44;100.00
36598;BME280;22607;49.550;11.940;2022-10-31T03:44:16;97372.38;;;8.38;100.00
36598;BME280;22607;49.550;11.940;2022-10-31T03:46:43;97376.91;;;8.36;100.00
36598;BME280;22607;49.550;11.940;2022-10-31T03:49:10;97373.72;;;8.52;100.00
36598;BME280;22607;49.550;11.940;2022-10-31T03:52:22;97374.09;;;8.58;100.00
36598;BME280;22607;49.550;11.940;2022-10-31T03:56:57;97374.91;;;8.58;100.00
36598;BME280;22607;49.550;11.940;2022-10-31T03:59:27;97382.78;;;8.58;100.00
36598;BME280;22607;49.550;11.940;2022-10-31T04:01:57;97374.91;;;8.58;100.00
36598;BME280;22607;49.550;11.940;2022-10-31T04:04:26;97368.31;;;8.54;100.00
36598;BME280;22607;49.550;11.940;2022-10-31T04:06:53;97376.72;;;8.58;100.00
36598;BME280;22607;49.550;11.940;2022-10-31T04:09:22;97373.28;;;8.57;100.00
36598;BME280;22607;49.550;11.940;2022-10-31T04:11:50;97373.72;;;8.43;100.00
36598;BME280;22607;49.550;11.940;2022-10-31T04:14:17;97372.53;;;8.37;100.00
36598;BME280;22607;49.550;11.940;2022-10-31T04:16:43;97369.25;;;8.25;100.00
36598;BME280;22607;49.550;11.940;2022-10-31T04:19:11;97365.78;;;8.34;100.00
36598;BME280;22607;49.550;11.940;2022-10-31T04:21:37;97363.59;;;8.30;100.00
36598;BME280;22607;49.550;11.940;2022-10-31T04:24:04;97362.59;;;8.31;100.00
36598;BME280;22607;49.550;11.940;2022-10-31T04:26:30;97366.91;;;8.32;100.00
36598;BME280;22607;49.550;11.940;2022-10-31T04:28:57;97368.09;;;8.37;100.00
36598;BME280;22607;49.550;11.940;2022-10-31T04:31:23;97369.75;;;8.10;100.00
36598;BME280;22607;49.550;11.940;2022-10-31T04:33:49;97364.91;;;8.16;100.00
36598;BME280;22607;49.550;11.940;2022-10-31T04:36:17;97370.94;;;8.16;100.00
36598;BME280;22607;49.550;11.940;2022-10-31T04:38:43;97366.25;;;8.20;100.00
36598;BME280;22607;49.550;11.940;2022-10-31T04:41:09;97364.91;;;8.16;100.00
36598;BME280;22607;49.550;11.940;2022-10-31T04:43:36;97371.00;;;8.06;100.00
36598;BME280;22607;49.550;11.940;2022-10-31T04:46:02;97368.00;;;7.91;100.00
36598;BME280;22607;49.550;11.940;2022-10-31T04:48:29;97369.09;;;7.88;100.00
36598;BME280;22607;49.550;11.940;2022-10-31T04:50:59;97368.72;;;7.83;100.00
36598;BME280;22607;49.550;11.940;2022-10-31T04:53:25;97371.84;;;7.97;100.00
36598;BME280;22607;49.550;11.940;2022-10-31T04:55:52;97359.44;;;7.99;100.00
36598;BME280;22607;49.550;11.940;2022-10-31T04:58:18;97366.69;;;8.05;100.00
36598;BME280;22607;49.550;11.940;2022-10-31T05:00:44;97370.75;;;7.90;100.00
36598;BME280;22607;49.550;11.940;2022-10-31T05:03:11;97372.19;;;7.64;100.00
36598;BME280;22607;49.550;11.940;2022-10-31T05:05:37;97365.84;;;7.67;100.00
36598;BME280;22607;49.550;11.940;2022-10-31T05:08:04;97365.78;;;7.86;100.00
36598;BME280;22607;49.550;11.940;2022-10-31T05:10:37;97370.53;;;7.73;100.00
36598;BME280;22607;49.550;11.940;2022-10-31T05:13:04;97379.44;;;7.70;100.00
36598;BME280;22607;49.550;11.940;2022-10-31T05:15:31;97373.38;;;7.90;100.00
36598;BME280;22607;49.550;11.940;2022-10-31T05:17:57;97371.84;;;7.87;100.00
36598;BME280;22607;49.550;11.940;2022-10-31T05:20:25;97373.47;;;7.98;100.00
36598;BME280;22607;49.550;11.940;2022-10-31T05:22:52;97377.34;;;7.94;100.00
36598;BME280;22607;49.550;11.940;2022-10-31T05:25:20;97371.31;;;7.83;100.00
36598;BME280;22607;49.550;11.940;2022-10-31T05:27:48;97372.66;;;7.97;100.00
36598;BME280;22607;49.550;11.940;2022-10-31T05:30:16;97374.34;;;7.88;100.00
36598;BME280;22607;49.550;11.940;2022-10-31T05:32:44;97372.13;;;7.84;100.00
36598;BME280;22607;49.550;11.940;2022-10-31T05:35:20;97369.28;;;7.57;100.00
36598;BME280;22607;49.550;11.940;2022-10-31T05:37:46;97377.28;;;7.66;100.00
36598;BME280;22607;49.550;11.940;2022-10-31T05:40:15;97372.84;;;7.76;100.00
36598;BME280;22607;49.550;11.940;2022-10-31T05:42:42;97371.97;;;7.95;100.00
36598;BME280;22607;49.550;11.940;2022-10-31T05:45:09;97369.09;;;7.98;100.00
36598;BME280;22607;49.550;11.940;2022-10-31T05:47:36;97373.81;;;7.75;100.00
36598;BME280;22607;49.550;11.940;2022-10-31T05:50:03;97376.81;;;7.80;100.00
36598;BME280;22607;49.550;11.940;2022-10-31T05:52:30;97376.69;;;7.92;100.00
36598;BME280;22607;49.550;11.940;2022-10-31T05:54:56;97381.06;;;8.01;100.00
36598;BME280;22607;49.550;11.940;2022-10-31T05:57:23;97383.97;;;7.88;100.00
36598;BME280;22607;49.550;11.940;2022-10-31T05:59:50;97376.34;;;7.57;100.00
36598;BME280;22607;49.550;11.940;2022-10-31T06:02:20;97388.00;;;7.62;100.00
36598;BME280;22607;49.550;11.940;2022-10-31T06:04:46;97382.22;;;7.69;100.00
36598;BME280;22607;49.550;11.940;2022-10-31T06:07:13;97383.75;;;7.61;100.00
36598;BME280;22607;49.550;11.940;2022-10-31T06:09:39;97389.13;;;7.50;100.00
36598;BME280;22607;49.550;11.940;2022-10-31T06:12:07;97395.84;;;7.33;100.00
36598;BME280;22607;49.550;11.940;2022-10-31T06:14:33;97391.88;;;7.39;100.00
36598;BME280;22607;49.550;11.940;2022-10-31T06:17:00;97389.09;;;7.70;100.00
36598;BME280;22607;49.550;11.940;2022-10-31T06:19:26;97394.19;;;7.71;100.00
36598;BME280;22607;49.550;11.940;2022-10-31T06:21:52;97390.75;;;7.81;100.00
36598;BME280;22607;49.550;11.940;2022-10-31T06:24:19;97391.00;;;7.87;100.00
36598;BME280;22607;49.550;11.940;2022-10-31T06:26:46;97393.03;;;7.94;100.00
36598;BME280;22607;49.550;11.940;2022-10-31T06:29:13;97394.69;;;7.95;100.00
36598;BME280;22607;49.550;11.940;2022-10-31T06:31:39;97397.16;;;8.06;100.00
36598;BME280;22607;49.550;11.940;2022-10-31T06:34:06;97392.97;;;8.13;100.00
36598;BME280;22607;49.550;11.940;2022-10-31T06:36:34;97396.81;;;8.29;100.00
36598;BME280;22607;49.550;11.940;2022-10-31T06:39:00;97382.44;;;8.89;100.00
36598;BME280;22607;49.550;11.940;2022-10-31T06:41:28;97379.63;;;9.37;100.00
36598;BME280;22607;49.550;11.940;2022-10-31T06:43:54;97383.22;;;9.81;100.00
36598;BME280;22607;49.550;11.940;2022-10-31T06:46:21;97381.47;;;9.90;100.00
36598;BME280;22607;49.550;11.940;2022-10-31T06:48:47;97379.78;;;10.07;100.00
36598;BME280;22607;49.550;11.940;2022-10-31T06:51:13;97381.38;;;10.00;100.00
36598;BME280;22607;49.550;11.940;2022-10-31T06:53:40;97387.13;;;10.38;100.00
36598;BME280;22607;49.550;11.940;2022-10-31T06:56:06;97390.97;;;10.87;100.00
36598;BME280;22607;49.550;11.940;2022-10-31T06:58:36;97388.03;;;10.98;100.00
36598;BME280;22607;49.550;11.940;2022-10-31T07:01:02;97392.03;;;11.19;100.00
36598;BME280;22607;49.550;11.940;2022-10-31T07:03:30;97388.06;;;11.65;99.41
36598;BME280;22607;49.550;11.940;2022-10-31T07:05:56;97391.69;;;11.89;98.39
36598;BME280;22607;49.550;11.940;2022-10-31T07:08:23;97386.03;;;12.25;93.66
36598;BME280;22607;49.550;11.940;2022-10-31T07:10:53;97390.88;;;12.53;90.17
36598;BME280;22607;49.550;11.940;2022-10-31T07:13:20;97388.81;;;12.72;90.22
36598;BME280;22607;49.550;11.940;2022-10-31T07:15:55;97391.38;;;12.89;87.50
36598;BME280;22607;49.550;11.940;2022-10-31T07:18:27;97380.53;;;12.83;88.05
36598;BME280;22607;49.550;11.940;2022-10-31T07:20:54;97388.47;;;12.75;89.18
36598;BME280;22607;49.550;11.940;2022-10-31T07:23:21;97383.06;;;13.00;87.79
36598;BME280;22607;49.550;11.940;2022-10-31T07:25:47;97391.34;;;12.97;89.28
36598;BME280;22607;49.550;11.940;2022-10-31T07:28:14;97392.69;;;12.61;90.09
36598;BME280;22607;49.550;11.940;2022-10-31T07:30:40;97376.94;;;13.31;85.37
36598;BME280;22607;49.550;11.940;2022-10-31T07:33:08;97388.47;;;12.43;91.00
36598;BME280;22607;49.550;11.940;2022-10-31T07:35:35;97382.69;;;13.11;89.10
36598;BME280;22607;49.550;11.940;2022-10-31T07:38:09;97390.00;;;13.01;89.11
36598;BME280;22607;49.550;11.940;2022-10-31T07:40:36;97385.91;;;13.22;88.31
36598;BME280;22607;49.550;11.940;2022-10-31T07:43:02;97381.97;;;13.18;88.64
36598;BME280;22607;49.550;11.940;2022-10-31T07:45:31;97379.03;;;13.98;85.19
36598;BME280;22607;49.550;11.940;2022-10-31T07:47:58;97373.78;;;14.43;80.98
36598;BME280;22607;49.550;11.940;2022-10-31T07:50:26;97371.25;;;14.72;79.02
36598;BME280;22607;49.550;11.940;2022-10-31T07:53:06;97380.06;;;14.94;77.97
36598;BME280;22607;49.550;11.940;2022-10-31T07:55:34;97375.63;;;15.38;75.31
36598;BME280;22607;49.550;11.940;2022-10-31T07:58:03;97361.53;;;15.53;74.58
36598;BME280;22607;49.550;11.940;2022-10-31T08:00:31;97365.31;;;15.72;72.97
36598;BME280;22607;49.550;11.940;2022-10-31T08:03:02;97365.13;;;15.95;71.20
36598;BME280;22607;49.550;11.940;2022-10-31T08:05:29;97368.09;;;16.14;70.80
36598;BME280;22607;49.550;11.940;2022-10-31T08:07:56;97366.09;;;16.23;69.64
36598;BME280;22607;49.550;11.940;2022-10-31T08:10:24;97360.41;;;16.26;72.71
36598;BME280;22607;49.550;11.940;2022-10-31T08:12:55;97359.09;;;16.57;70.73
36598;BME280;22607;49.550;11.940;2022-10-31T08:15:21;97368.00;;;16.85;72.44
36598;BME280;22607;49.550;11.940;2022-10-31T08:17:48;97363.72;;;16.97;68.61
36598;BME280;22607;49.550;11.940;2022-10-31T08:20:15;97364.41;;;17.13;68.77
36598;BME280;22607;49.550;11.940;2022-10-31T08:23:01;97363.22;;;17.29;68.45
36598;BME280;22607;49.550;11.940;2022-10-31T08:25:29;97364.44;;;17.26;68.25
36598;BME280;22607;49.550;11.940;2022-10-31T08:28:03;97359.75;;;17.42;66.95
36598;BME280;22607;49.550;11.940;2022-10-31T08:30:30;97367.94;;;16.71;71.80
36598;BME280;22607;49.550;11.940;2022-10-31T08:33:00;97365.38;;;16.98;70.11
36598;BME280;22607;49.550;11.940;2022-10-31T08:35:34;97361.16;;;17.38;68.96
36598;BME280;22607;49.550;11.940;2022-10-31T08:38:01;97359.75;;;17.49;69.60
36598;BME280;22607;49.550;11.940;2022-10-31T08:40:29;97351.78;;;17.69;67.84
36598;BME280;22607;49.550;11.940;2022-10-31T08:42:57;97341.38;;;17.54;69.29
36598;BME280;22607;49.550;11.940;2022-10-31T08:45:23;97332.94;;;17.97;68.54
36598;BME280;22607;49.550;11.940;2022-10-31T08:47:50;97334.84;;;18.56;64.51
36598;BME280;22607;49.550;11.940;2022-10-31T08:50:17;97327.81;;;18.69;64.60
36598;BME280;22607;49.550;11.940;2022-10-31T08:52:43;97326.03;;;18.56;64.83
36598;BME280;22607;49.550;11.940;2022-10-31T08:55:29;97320.56;;;18.89;64.64
36598;BME280;22607;49.550;11.940;2022-10-31T08:57:56;97316.91;;;18.84;64.57
36598;BME280;22607;49.550;11.940;2022-10-31T09:00:23;97327.34;;;18.85;63.96
36598;BME280;22607;49.550;11.940;2022-10-31T09:03:01;97320.84;;;18.74;65.50
36598;BME280;22607;49.550;11.940;2022-10-31T09:05:27;97319.59;;;18.77;65.91
36598;BME280;22607;49.550;11.940;2022-10-31T09:07:57;97312.69;;;19.01;65.30
36598;BME280;22607;49.550;11.940;2022-10-31T09:10:25;97317.31;;;19.20;65.49
36598;BME280;22607;49.550;11.940;2022-10-31T09:13:00;97309.53;;;19.18;64.92
36598;BME280;22607;49.550;11.940;2022-10-31T09:15:27;97310.78;;;19.15;66.63
36598;BME280;22607;49.550;11.940;2022-10-31T09:17:54;97311.22;;;19.12;65.60
36598;BME280;22607;49.550;11.940;2022-10-31T09:20:20;97310.09;;;19.27;66.53
36598;BME280;22607;49.550;11.940;2022-10-31T09:22:47;97304.16;;;19.50;66.17
36598;BME280;22607;49.550;11.940;2022-10-31T09:25:13;97302.06;;;19.59;65.38
36598;BME280;22607;49.550;11.940;2022-10-31T09:27:40;97297.53;;;19.60;65.58
36598;BME280;22607;49.550;11.940;2022-10-31T09:30:07;97306.88;;;19.44;67.52
36598;BME280;22607;49.550;11.940;2022-10-31T09:32:33;97292.31;;;19.46;67.50
36598;BME280;22607;49.550;11.940;2022-10-31T09:34:59;97293.78;;;19.42;68.49
36598;BME280;22607;49.550;11.940;2022-10-31T09:37:26;97287.88;;;19.84;67.48
36598;BME280;22607;49.550;11.940;2022-10-31T09:39:52;97288.66;;;20.10;65.03
36598;BME280;22607;49.550;11.940;2022-10-31T09:42:24;97287.22;;;20.26;66.75
36598;BME280;22607;49.550;11.940;2022-10-31T09:44:58;97286.00;;;20.59;62.25
36598;BME280;22607;49.550;11.940;2022-10-31T09:47:38;97286.97;;;20.46;63.89
36598;BME280;22607;49.550;11.940;2022-10-31T09:52:38;97300.66;;;20.01;63.92
36598;BME280;22607;49.550;11.940;2022-10-31T09:55:22;97293.31;;;20.64;63.26
36598;BME280;22607;49.550;11.940;2022-10-31T09:57:53;97292.06;;;20.97;61.92
36598;BME280;22607;49.550;11.940;2022-10-31T10:00:20;97289.72;;;20.89;60.97
36598;BME280;22607;49.550;11.940;2022-10-31T10:02:57;97286.59;;;20.92;62.02
36598;BME280;22607;49.550;11.940;2022-10-31T10:05:33;97287.63;;;20.91;62.51
36598;BME280;22607;49.550;11.940;2022-10-31T10:13:50;97275.59;;;21.01;60.79
36598;BME280;22607;49.550;11.940;2022-10-31T10:26:34;97277.03;;;20.84;61.39
36598;BME280;22607;49.550;11.940;2022-10-31T10:29:05;97274.47;;;20.47;64.89
36598;BME280;22607;49.550;11.940;2022-10-31T10:31:39;97272.50;;;20.85;65.44
36598;BME280;22607;49.550;11.940;2022-10-31T10:34:10;97269.50;;;21.48;62.91
36598;BME280;22607;49.550;11.940;2022-10-31T10:36:42;97265.06;;;21.54;61.30
36598;BME280;22607;49.550;11.940;2022-10-31T10:39:15;97263.69;;;21.51;61.26
36598;BME280;22607;49.550;11.940;2022-10-31T10:41:44;97254.50;;;21.47;61.40
36598;BME280;22607;49.550;11.940;2022-10-31T10:44:11;97262.06;;;21.26;62.33
36598;BME280;22607;49.550;11.940;2022-10-31T10:46:42;97245.28;;;20.95;63.55
36598;BME280;22607;49.550;11.940;2022-10-31T10:54:42;97244.28;;;21.56;65.50
36598;BME280;22607;49.550;11.940;2022-10-31T10:57:31;97244.84;;;21.58;63.38
36598;BME280;22607;49.550;11.940;2022-10-31T11:00:00;97232.66;;;21.50;64.46
36598;BME280;22607;49.550;11.940;2022-10-31T11:02:32;97231.28;;;21.11;66.91
36598;BME280;22607;49.550;11.940;2022-10-31T11:04:59;97236.25;;;21.20;68.00
36598;BME280;22607;49.550;11.940;2022-10-31T11:07:37;97227.88;;;21.52;64.32
36598;BME280;22607;49.550;11.940;2022-10-31T11:10:04;97223.59;;;21.63;66.16
36598;BME280;22607;49.550;11.940;2022-10-31T11:12:32;97227.31;;;21.62;63.83
36598;BME280;22607;49.550;11.940;2022-10-31T11:15:02;97218.88;;;21.41;63.87
36598;BME280;22607;49.550;11.940;2022-10-31T11:17:32;97213.03;;;21.56;63.23
36598;BME280;22607;49.550;11.940;2022-10-31T11:22:45;97211.06;;;21.28;65.23
36598;BME280;22607;49.550;11.940;2022-10-31T11:27:58;97194.53;;;21.55;64.18
36598;BME280;22607;49.550;11.940;2022-10-31T11:30:24;97193.63;;;21.61;63.98
36598;BME280;22607;49.550;11.940;2022-10-31T11:32:51;97189.00;;;21.32;65.30
36598;BME280;22607;49.550;11.940;2022-10-31T11:35:18;97183.31;;;21.41;64.05
36598;BME280;22607;49.550;11.940;2022-10-31T11:37:46;97178.25;;;21.68;64.87
36598;BME280;22607;49.550;11.940;2022-10-31T11:40:15;97173.88;;;21.74;64.23
36598;BME280;22607;49.550;11.940;2022-10-31T11:42:42;97172.72;;;21.58;65.15
36598;BME280;22607;49.550;11.940;2022-10-31T11:47:54;97163.50;;;21.77;62.99
36598;BME280;22607;49.550;11.940;2022-10-31T11:50:35;97158.75;;;21.80;63.40
36598;BME280;22607;49.550;11.940;2022-10-31T11:53:03;97159.09;;;21.71;64.35
36598;BME280;22607;49.550;11.940;2022-10-31T11:57:57;97158.88;;;21.73;65.12
36598;BME280;22607;49.550;11.940;2022-10-31T12:00:25;97149.25;;;21.72;64.72
36598;BME280;22607;49.550;11.940;2022-10-31T12:03:03;97150.66;;;21.50;64.46
36598;BME280;22607;49.550;11.940;2022-10-31T12:05:30;97144.50;;;21.50;64.83
36598;BME280;22607;49.550;11.940;2022-10-31T12:07:59;97147.16;;;21.62;64.40
36598;BME280;22607;49.550;11.940;2022-10-31T12:10:42;97141.47;;;21.58;65.36
36598;BME280;22607;49.550;11.940;2022-10-31T12:13:21;97139.59;;;21.59;63.80
36598;BME280;22607;49.550;11.940;2022-10-31T12:15:53;97125.31;;;21.65;65.36
36598;BME280;22607;49.550;11.940;2022-10-31T12:18:24;97125.28;;;21.77;64.50
36598;BME280;22607;49.550;11.940;2022-10-31T12:21:08;97121.56;;;21.66;64.26
36598;BME280;22607;49.550;11.940;2022-10-31T12:31:29;97124.66;;;21.34;66.30
36598;BME280;22607;49.550;11.940;2022-10-31T12:49:11;97095.91;;;21.65;62.84
36598;BME280;22607;49.550;11.940;2022-10-31T12:54:16;97098.72;;;21.58;62.86
36598;BME280;22607;49.550;11.940;2022-10-31T13:02:06;97082.72;;;21.87;62.26
36598;BME280;22607;49.550;11.940;2022-10-31T13:04:40;97082.75;;;21.75;61.39
36598;BME280;22607;49.550;11.940;2022-10-31T13:07:10;97079.03;;;21.76;61.53
36598;BME280;22607;49.550;11.940;2022-10-31T13:09:43;97080.50;;;21.84;61.40
36598;BME280;22607;49.550;11.940;2022-10-31T13:12:14;97074.75;;;21.75;63.56
36598;BME280;22607;49.550;11.940;2022-10-31T13:14:43;97068.94;;;21.79;60.79
36598;BME280;22607;49.550;11.940;2022-10-31T13:17:21;97076.13;;;21.78;61.64
36598;BME280;22607;49.550;11.940;2022-10-31T13:19:49;97057.31;;;21.73;62.97
36598;BME280;22607;49.550;11.940;2022-10-31T13:22:18;97068.97;;;21.55;62.26
36598;BME280;22607;49.550;11.940;2022-10-31T13:32:15;97057.34;;;21.61;64.74
36598;BME280;22607;49.550;11.940;2022-10-31T13:34:50;97053.06;;;21.60;64.61
36598;BME280;22607;49.550;11.940;2022-10-31T13:40:05;97058.19;;;21.49;66.86
36598;BME280;22607;49.550;11.940;2022-10-31T13:42:39;97049.88;;;21.34;70.94
36598;BME280;22607;49.550;11.940;2022-10-31T13:45:17;97035.41;;;21.18;79.88
36598;BME280;22607;49.550;11.940;2022-10-31T13:47:54;97042.16;;;21.08;81.12
36598;BME280;22607;49.550;11.940;2022-10-31T13:50:23;97033.81;;;20.93;85.51
36598;BME280;22607;49.550;11.940;2022-10-31T13:52:49;97034.63;;;20.93;87.95
36598;BME280;22607;49.550;11.940;2022-10-31T13:58:03;97040.09;;;20.87;87.23
36598;BME280;22607;49.550;11.940;2022-10-31T14:00:30;97039.59;;;20.78;89.91
36598;BME280;22607;49.550;11.940;2022-10-31T14:03:01;97034.94;;;20.73;85.93
36598;BME280;22607;49.550;11.940;2022-10-31T14:05:31;97030.91;;;20.46;92.91
36598;BME280;22607;49.550;11.940;2022-10-31T14:08:05;97034.72;;;20.39;93.09
36598;BME280;22607;49.550;11.940;2022-10-31T14:10:36;97034.84;;;20.56;90.44
36598;BME280;22607;49.550;11.940;2022-10-31T14:13:14;97031.72;;;20.59;88.86
36598;BME280;22607;49.550;11.940;2022-10-31T14:15:42;97027.31;;;20.41;89.78
36598;BME280;22607;49.550;11.940;2022-10-31T14:18:19;97028.81;;;20.49;87.29
36598;BME280;22607;49.550;11.940;2022-10-31T14:20:48;97025.88;;;20.26;90.97
36598;BME280;22607;49.550;11.940;2022-10-31T14:23:37;97025.34;;;20.36;88.98
36598;BME280;22607;49.550;11.940;2022-10-31T14:26:17;97021.25;;;20.22;90.37
36598;BME280;22607;49.550;11.940;2022-10-31T14:28:44;97016.59;;;20.17;89.78
36598;BME280;22607;49.550;11.940;2022-10-31T14:33:50;97017.66;;;19.85;94.75
36598;BME280;22607;49.550;11.940;2022-10-31T14:36:25;97011.97;;;19.70;97.12
36598;BME280;22607;49.550;11.940;2022-10-31T14:39:05;97017.91;;;19.84;97.37
36598;BME280;22607;49.550;11.940;2022-10-31T14:47:14;97015.88;;;19.67;100.00
36598;BME280;22607;49.550;11.940;2022-10-31T14:49:55;97020.47;;;19.60;100.00
36598;BME280;22607;49.550;11.940;2022-10-31T14:52:26;97004.91;;;19.45;100.00
36598;BME280;22607;49.550;11.940;2022-10-31T14:54:54;97012.22;;;19.49;100.00
36598;BME280;22607;49.550;11.940;2022-10-31T14:57:31;97003.28;;;19.44;100.00
36598;BME280;22607;49.550;11.940;2022-10-31T15:00:02;97005.75;;;19.26;100.00